createdAt,value
2016-12-14T00:00:07.634Z,0
2016-12-14T00:01:18.996Z,0
2016-12-14T00:02:30.651Z,0
2016-12-14T00:03:42.076Z,0
2016-12-14T00:04:53.601Z,0
2016-12-14T00:06:04.857Z,0
2016-12-14T00:07:17.840Z,0
2016-12-14T00:08:29.158Z,0
2016-12-14T00:09:40.584Z,0
2016-12-14T00:10:52.727Z,0
2016-12-14T00:12:04.594Z,0
2016-12-14T00:13:16.323Z,0
2016-12-14T00:14:27.824Z,0
2016-12-14T00:15:39.236Z,0
2016-12-14T00:16:51.250Z,0
2016-12-14T00:18:03.405Z,0
2016-12-14T00:19:14.767Z,0
2016-12-14T00:20:27.193Z,0
2016-12-14T00:21:40.164Z,0
2016-12-14T00:22:51.621Z,0
2016-12-14T00:24:02.896Z,0
2016-12-14T00:25:14.668Z,0
2016-12-14T00:26:27.403Z,0
2016-12-14T00:27:38.643Z,0
2016-12-14T00:28:50.149Z,0
2016-12-14T00:30:01.431Z,0
2016-12-14T00:31:12.656Z,0
2016-12-14T00:32:24.164Z,0
2016-12-14T00:33:35.618Z,0
2016-12-14T00:34:47.375Z,0
2016-12-14T00:35:59.977Z,0
2016-12-14T00:37:11.102Z,0
2016-12-14T00:38:22.329Z,0
2016-12-14T00:39:33.745Z,0
2016-12-14T00:40:45.342Z,0
2016-12-14T00:41:56.809Z,0
2016-12-14T00:43:07.941Z,0
2016-12-14T00:44:19.180Z,0
2016-12-14T00:45:30.457Z,0
2016-12-14T00:46:42.203Z,0
2016-12-14T00:47:53.432Z,0
2016-12-14T00:49:05.208Z,0
2016-12-14T00:50:18.247Z,0
2016-12-14T00:51:29.399Z,0
2016-12-14T00:52:42.063Z,0
2016-12-14T00:53:55.641Z,0
2016-12-14T00:55:07.076Z,0
2016-12-14T00:56:18.262Z,0
2016-12-14T00:57:29.451Z,0
2016-12-14T00:58:40.914Z,0
2016-12-14T00:59:52.085Z,0
2016-12-14T01:01:03.504Z,0
2016-12-14T01:02:15.074Z,0
2016-12-14T01:03:26.770Z,0
2016-12-14T01:04:39.368Z,0
2016-12-14T01:05:59.681Z,0
2016-12-14T01:07:10.840Z,0
2016-12-14T01:08:22.070Z,0
2016-12-14T01:09:33.183Z,0
2016-12-14T01:10:44.402Z,0
2016-12-14T01:11:55.631Z,0
2016-12-14T01:13:08.003Z,0
2016-12-14T01:14:19.604Z,0
2016-12-14T01:15:30.788Z,0
2016-12-14T01:16:42.011Z,0
2016-12-14T01:17:53.120Z,0
2016-12-14T01:19:04.494Z,0
2016-12-14T01:20:17.749Z,0
2016-12-14T01:21:28.967Z,0
2016-12-14T01:22:40.090Z,0
2016-12-14T01:23:51.317Z,0
2016-12-14T01:25:02.721Z,0
2016-12-14T01:26:15.390Z,0
2016-12-14T01:27:26.840Z,0
2016-12-14T01:28:38.010Z,0
2016-12-14T01:29:49.164Z,0
2016-12-14T01:31:00.588Z,0
2016-12-14T01:32:12.107Z,0
2016-12-14T01:33:29.094Z,0
2016-12-14T01:34:42.238Z,0
2016-12-14T01:35:58.574Z,0
2016-12-14T01:37:13.264Z,0
2016-12-14T01:38:27.908Z,0
2016-12-14T01:39:42.949Z,0
2016-12-14T01:40:57.174Z,0
2016-12-14T01:42:09.379Z,0
2016-12-14T01:43:20.805Z,0
2016-12-14T01:44:32.004Z,0
2016-12-14T01:45:43.469Z,0
2016-12-14T01:46:54.996Z,0
2016-12-14T01:48:06.824Z,0
2016-12-14T01:49:18.225Z,0
2016-12-14T01:50:29.378Z,0
2016-12-14T01:51:43.123Z,0
2016-12-14T01:52:55.893Z,0
2016-12-14T01:54:07.051Z,0
2016-12-14T01:55:18.735Z,0
2016-12-14T01:56:30.252Z,0
2016-12-14T01:57:41.676Z,0
2016-12-14T01:58:53.350Z,0
2016-12-14T02:00:04.510Z,0
2016-12-14T02:01:16.016Z,0
2016-12-14T02:02:27.378Z,0
2016-12-14T02:03:39.090Z,0
2016-12-14T02:04:52.390Z,0
2016-12-14T02:06:03.528Z,0
2016-12-14T02:07:15.042Z,0
2016-12-14T02:08:28.372Z,0
2016-12-14T02:09:39.550Z,0
2016-12-14T02:10:51.298Z,0
2016-12-14T02:12:03.245Z,0
2016-12-14T02:13:14.898Z,0
2016-12-14T02:14:26.123Z,0
2016-12-14T02:15:37.622Z,0
2016-12-14T02:16:49.110Z,0
2016-12-14T02:18:00.587Z,0
2016-12-14T02:19:12.203Z,0
2016-12-14T02:20:23.325Z,0
2016-12-14T02:21:35.739Z,0
2016-12-14T02:22:47.240Z,0
2016-12-14T02:23:58.676Z,0
2016-12-14T02:25:10.315Z,0
2016-12-14T02:26:21.460Z,0
2016-12-14T02:27:34.129Z,0
2016-12-14T02:28:45.363Z,0
2016-12-14T02:29:56.470Z,0
2016-12-14T02:31:22.941Z,0
2016-12-14T02:32:34.065Z,0
2016-12-14T02:33:45.608Z,0
2016-12-14T02:34:56.770Z,0
2016-12-14T02:36:07.905Z,0
2016-12-14T02:37:19.354Z,0
2016-12-14T02:38:30.760Z,0
2016-12-14T02:39:43.685Z,0
2016-12-14T02:40:54.835Z,0
2016-12-14T10:57:56.832Z,75
2016-12-14T10:59:54.134Z,75
2016-12-14T11:03:46.610Z,80
2016-12-14T11:07:09.440Z,85
2016-12-14T11:08:38.141Z,90
2016-12-14T11:10:06.102Z,90
2016-12-14T11:11:18.154Z,90
2016-12-14T11:12:29.795Z,90
2016-12-14T11:13:42.122Z,90
2016-12-14T11:14:54.344Z,90
2016-12-14T11:16:06.592Z,90
2016-12-14T11:17:18.258Z,90
2016-12-14T11:18:30.585Z,85
2016-12-14T11:19:43.654Z,85
2016-12-14T11:20:55.471Z,90
2016-12-14T11:22:07.404Z,90
2016-12-14T11:23:19.104Z,95
2016-12-14T11:24:30.794Z,95
2016-12-14T11:25:43.097Z,100
2016-12-14T11:26:54.848Z,95
2016-12-14T11:28:06.510Z,95
2016-12-14T11:29:18.426Z,90
2016-12-14T11:30:30.554Z,90
2016-12-14T11:31:42.727Z,90
2016-12-14T11:32:54.478Z,85
2016-12-14T11:34:06.596Z,80
2016-12-14T11:35:18.592Z,80
2016-12-14T11:36:30.889Z,80
2016-12-14T11:37:43.109Z,80
2016-12-14T11:38:55.351Z,80
2016-12-14T11:40:07.473Z,75
2016-12-14T11:41:20.733Z,70
2016-12-14T11:42:33.158Z,65
2016-12-14T11:43:45.298Z,60
2016-12-14T11:44:57.405Z,55
2016-12-14T11:46:09.229Z,55
2016-12-14T11:47:20.945Z,55
2016-12-14T11:48:32.801Z,55
2016-12-14T11:49:45.209Z,55
2016-12-14T11:50:57.885Z,55
2016-12-14T11:52:10.086Z,55
2016-12-14T11:53:23.396Z,60
2016-12-14T11:54:35.105Z,60
2016-12-14T11:55:47.222Z,60
2016-12-14T11:56:59.213Z,65
2016-12-14T11:58:11.136Z,65
2016-12-14T11:59:23.116Z,65
2016-12-14T12:00:34.807Z,65
2016-12-14T12:01:48.171Z,70
2016-12-14T12:03:00.165Z,80
2016-12-14T12:04:11.945Z,85
2016-12-14T12:05:24.050Z,85
2016-12-14T12:06:35.990Z,90
2016-12-14T12:07:49.477Z,90
2016-12-14T12:09:03.584Z,95
2016-12-14T12:10:15.219Z,100
2016-12-14T12:11:27.308Z,90
2016-12-14T12:12:39.098Z,90
2016-12-14T12:13:50.890Z,85
2016-12-14T12:15:04.106Z,80
2016-12-14T12:16:16.103Z,80
2016-12-14T12:17:27.730Z,80
2016-12-14T12:18:41.046Z,85
2016-12-14T12:19:52.974Z,85
2016-12-14T12:21:05.340Z,85
2016-12-14T12:22:17.594Z,85
2016-12-14T12:23:31.553Z,85
2016-12-14T12:24:45.190Z,85
2016-12-14T12:25:57.506Z,85
2016-12-14T12:27:09.463Z,90
2016-12-14T12:28:21.742Z,90
2016-12-14T12:29:33.732Z,90
2016-12-14T12:30:45.836Z,90
2016-12-14T12:31:58.295Z,90
2016-12-14T12:33:10.213Z,90
2016-12-14T12:34:22.481Z,85
2016-12-14T12:35:35.516Z,85
2016-12-14T12:36:47.409Z,85
2016-12-14T12:37:59.925Z,85
2016-12-14T12:39:11.978Z,80
2016-12-14T12:40:24.431Z,80
2016-12-14T12:41:36.605Z,75
2016-12-14T12:42:57.880Z,75
2016-12-14T12:44:28.488Z,75
2016-12-14T12:45:40.378Z,75
2016-12-14T12:46:53.397Z,75
2016-12-14T12:48:05.604Z,75
2016-12-14T12:49:18.591Z,75
2016-12-14T12:50:32.414Z,70
2016-12-14T12:51:47.255Z,70
2016-12-14T12:53:15.163Z,70
2016-12-14T12:54:27.988Z,65
2016-12-14T12:55:46.232Z,65
2016-12-14T12:56:59.494Z,60
2016-12-14T12:58:11.809Z,55
2016-12-14T12:59:27.511Z,55
2016-12-14T13:00:41.405Z,55
2016-12-14T13:01:59.792Z,50
2016-12-14T13:03:13.576Z,45
2016-12-14T13:04:25.561Z,45
2016-12-14T13:05:38.700Z,45
2016-12-14T13:06:51.923Z,40
2016-12-14T13:08:05.669Z,40
2016-12-14T13:09:18.344Z,35
2016-12-14T13:10:30.365Z,35
2016-12-14T13:11:42.103Z,35
2016-12-14T13:12:54.078Z,35
2016-12-14T13:14:06.245Z,35
2016-12-14T13:15:19.116Z,35
2016-12-14T13:16:30.975Z,35
2016-12-14T13:17:43.860Z,35
2016-12-14T13:18:56.531Z,35
2016-12-14T13:20:08.558Z,35
2016-12-14T13:21:21.304Z,40
2016-12-14T13:22:33.205Z,40
2016-12-14T13:23:44.971Z,40
2016-12-14T13:24:57.126Z,40
2016-12-14T13:26:09.393Z,40
2016-12-14T13:27:23.157Z,40
2016-12-14T13:28:35.038Z,40
2016-12-14T13:29:47.489Z,40
2016-12-14T13:30:59.483Z,40
2016-12-14T13:32:11.610Z,40
2016-12-14T13:33:24.240Z,35
2016-12-14T13:34:36.393Z,35
2016-12-14T13:35:48.546Z,35
2016-12-14T13:37:00.793Z,35
2016-12-14T13:38:16.268Z,35
2016-12-14T13:39:31.961Z,35
2016-12-14T13:40:43.852Z,35
2016-12-14T13:41:55.608Z,35
2016-12-14T13:43:07.659Z,35
2016-12-14T13:44:20.071Z,35
2016-12-14T13:45:31.980Z,35
2016-12-14T13:46:58.704Z,35
2016-12-14T13:48:12.012Z,30
2016-12-14T13:49:24.229Z,30
2016-12-14T13:50:37.146Z,30
2016-12-14T13:51:49.606Z,30
2016-12-14T13:53:01.518Z,25
2016-12-14T13:54:13.314Z,30
2016-12-14T13:55:25.847Z,30
2016-12-14T13:56:38.294Z,30
2016-12-14T13:57:50.039Z,30
2016-12-14T13:59:02.090Z,25
2016-12-14T14:00:14.156Z,25
2016-12-14T14:01:41.196Z,25
2016-12-14T14:02:54.777Z,25
2016-12-14T14:04:06.921Z,25
2016-12-14T14:05:18.872Z,25
2016-12-14T14:06:30.519Z,20
2016-12-14T14:07:42.527Z,25
2016-12-14T14:08:54.317Z,25
2016-12-14T14:10:06.910Z,25
2016-12-14T14:11:19.205Z,25
2016-12-14T14:12:31.168Z,25
2016-12-14T14:13:43.239Z,20
2016-12-14T14:14:55.104Z,20
2016-12-14T14:16:07.010Z,20
2016-12-14T14:17:47.718Z,20
2016-12-14T14:18:59.737Z,20
2016-12-14T14:20:11.775Z,20
2016-12-14T14:21:24.052Z,15
2016-12-14T14:22:36.426Z,15
2016-12-14T14:23:48.277Z,15
2016-12-14T14:25:00.369Z,15
2016-12-14T14:26:12.716Z,15
2016-12-14T14:27:24.920Z,15
2016-12-14T14:28:36.687Z,15
2016-12-14T14:29:51.440Z,15
2016-12-14T14:31:03.421Z,15
2016-12-14T14:32:15.704Z,15
2016-12-14T14:33:27.644Z,15
2016-12-14T14:34:39.537Z,15
2016-12-14T14:35:51.483Z,15
2016-12-14T14:37:04.203Z,15
2016-12-14T14:38:16.473Z,15
2016-12-14T14:39:28.256Z,10
2016-12-14T14:40:40.750Z,10
2016-12-14T14:41:52.861Z,10
2016-12-14T14:43:04.941Z,10
2016-12-14T14:44:17.249Z,10
2016-12-14T14:45:29.208Z,10
2016-12-14T14:46:40.956Z,10
2016-12-14T14:47:52.853Z,10
2016-12-14T14:49:05.055Z,10
2016-12-14T14:50:16.857Z,10
2016-12-14T14:51:28.869Z,10
2016-12-14T14:52:40.921Z,5
2016-12-14T14:53:52.723Z,5
2016-12-14T14:55:07.146Z,5
2016-12-14T14:56:18.922Z,5
2016-12-14T14:57:30.680Z,5
2016-12-14T14:58:42.660Z,5
2016-12-14T14:59:54.430Z,5
2016-12-14T15:01:07.148Z,5
2016-12-14T15:02:18.797Z,5
2016-12-14T15:03:30.608Z,5
2016-12-14T15:04:42.706Z,5
2016-12-14T15:05:55.140Z,5
2016-12-14T15:07:07.744Z,5
2016-12-14T15:08:19.841Z,0
2016-12-14T15:09:31.522Z,0
2016-12-14T15:10:43.406Z,0
2016-12-14T15:12:13.269Z,0
2016-12-14T15:13:25.832Z,0
2016-12-14T15:14:37.568Z,0
2016-12-14T15:15:49.282Z,0
2016-12-14T15:17:01.137Z,0
2016-12-14T15:18:13.347Z,0
2016-12-14T15:19:25.660Z,0
2016-12-14T15:20:37.293Z,0
2016-12-14T15:21:49.326Z,0
2016-12-14T15:23:01.269Z,0
2016-12-14T15:24:13.087Z,0
2016-12-14T15:25:25.077Z,0
2016-12-14T15:26:36.928Z,0
2016-12-14T15:27:49.476Z,0
2016-12-14T15:29:02.474Z,0
2016-12-14T15:30:14.619Z,0
2016-12-14T15:31:26.555Z,0
2016-12-14T15:32:39.301Z,0
2016-12-14T15:33:51.465Z,0
2016-12-14T15:35:04.987Z,0
2016-12-14T15:36:17.416Z,0
2016-12-14T15:37:37.649Z,0
2016-12-14T15:38:57.758Z,0
2016-12-14T15:40:10.722Z,0
2016-12-14T15:41:22.378Z,0
2016-12-14T15:42:34.723Z,0
2016-12-14T15:43:47.129Z,0
2016-12-14T15:44:59.152Z,0
2016-12-14T15:46:10.850Z,0
2016-12-14T15:47:23.047Z,0
2016-12-14T15:48:35.127Z,0
2016-12-14T15:49:48.140Z,0
2016-12-14T15:51:00.859Z,0
2016-12-14T15:52:13.392Z,0
2016-12-14T15:53:25.338Z,0
2016-12-14T15:54:37.865Z,0
2016-12-14T15:55:50.674Z,0
2016-12-14T15:57:02.929Z,0
2016-12-14T15:58:15.153Z,0
2016-12-14T15:59:27.530Z,0
2016-12-14T16:00:39.239Z,0
2016-12-14T16:01:51.701Z,0
2016-12-14T16:03:03.985Z,0
2016-12-14T16:04:19.158Z,0
2016-12-14T16:05:31.108Z,0
2016-12-14T16:06:43.412Z,0
2016-12-14T16:07:56.163Z,0
2016-12-14T16:09:07.967Z,0
2016-12-14T16:10:22.253Z,0
2016-12-14T16:11:34.679Z,0
2016-12-14T16:12:46.529Z,0
2016-12-14T16:13:58.610Z,0
2016-12-14T16:15:10.452Z,0
2016-12-14T16:16:23.891Z,0
2016-12-14T16:17:36.178Z,0
2016-12-14T16:18:48.805Z,0
2016-12-14T16:20:02.871Z,0
2016-12-14T16:21:26.013Z,0
2016-12-14T16:34:18.995Z,0
2016-12-14T16:35:31.454Z,0
2016-12-14T16:36:43.856Z,0
2016-12-14T16:37:56.173Z,0
2016-12-14T16:39:08.227Z,0
2016-12-14T16:40:20.243Z,0
2016-12-14T16:41:32.654Z,0
2016-12-14T16:42:44.528Z,0
2016-12-14T16:43:57.019Z,0
2016-12-14T16:45:08.846Z,0
2016-12-14T16:46:21.756Z,0
2016-12-14T16:47:34.627Z,0
2016-12-14T16:48:46.370Z,0
2016-12-14T16:49:58.360Z,0
2016-12-14T16:51:10.207Z,0
2016-12-14T16:52:22.338Z,0
2016-12-14T16:53:34.889Z,0
2016-12-14T16:54:47.871Z,0
2016-12-14T16:55:59.989Z,0
2016-12-14T16:57:12.225Z,0
2016-12-14T16:58:24.431Z,0
2016-12-14T16:59:36.819Z,0
2016-12-14T17:00:48.916Z,0
2016-12-14T17:02:01.389Z,0
2016-12-14T17:03:13.967Z,0
2016-12-14T17:04:26.004Z,0
2016-12-14T17:07:05.060Z,0
2016-12-14T17:08:16.875Z,0
2016-12-14T17:09:28.596Z,0
2016-12-14T17:10:40.701Z,0
2016-12-14T17:11:52.804Z,0
2016-12-14T17:13:04.653Z,0
2016-12-14T17:14:16.538Z,0
2016-12-14T17:15:28.998Z,0
2016-12-14T17:16:41.200Z,0
2016-12-14T17:17:56.783Z,0
2016-12-14T17:19:11.691Z,0
2016-12-14T17:20:26.881Z,0
2016-12-14T17:21:42.499Z,0
2016-12-14T17:22:58.357Z,0
2016-12-14T17:24:13.498Z,0
2016-12-14T17:27:19.220Z,0
2016-12-14T17:28:36.751Z,0
2016-12-14T17:29:53.586Z,0
2016-12-14T17:31:08.236Z,0
2016-12-14T17:33:01.477Z,0
2016-12-14T17:34:16.434Z,0
2016-12-14T17:35:33.296Z,0
2016-12-14T17:36:47.770Z,0
2016-12-14T17:38:02.494Z,0
2016-12-14T17:39:18.207Z,0
2016-12-14T17:40:33.118Z,0
2016-12-14T17:41:48.114Z,0
2016-12-14T17:43:02.957Z,0
2016-12-14T17:44:17.484Z,0
2016-12-14T17:45:32.658Z,0
2016-12-14T17:46:48.228Z,0
2016-12-14T17:48:03.481Z,0
2016-12-14T17:49:18.687Z,0
2016-12-14T17:50:33.401Z,0
2016-12-14T17:51:49.650Z,0
2016-12-14T17:54:34.071Z,0
2016-12-14T17:55:50.912Z,0
2016-12-14T17:57:06.207Z,0
2016-12-14T17:58:21.195Z,0
2016-12-14T17:59:36.100Z,0
2016-12-14T18:00:50.900Z,0
2016-12-14T18:02:06.144Z,0
2016-12-14T18:03:21.967Z,0
2016-12-14T18:04:52.656Z,0
2016-12-14T18:06:07.809Z,0
2016-12-14T18:07:23.029Z,0
2016-12-14T18:08:38.131Z,0
2016-12-14T18:09:53.329Z,0
2016-12-14T18:11:07.956Z,0
2016-12-14T18:12:22.579Z,0
2016-12-14T18:13:37.464Z,0
2016-12-14T18:14:51.961Z,0
2016-12-14T18:16:06.679Z,0
2016-12-14T18:17:21.534Z,0
2016-12-14T18:18:36.286Z,0
2016-12-14T18:19:50.942Z,0
2016-12-14T18:21:05.892Z,0
2016-12-14T18:22:20.511Z,0
2016-12-14T18:23:35.466Z,0
2016-12-14T18:24:50.022Z,0
2016-12-14T18:26:04.466Z,0
2016-12-14T18:27:19.859Z,0
2016-12-14T18:28:34.752Z,0
2016-12-14T18:29:49.023Z,0
2016-12-14T18:31:03.653Z,0
2016-12-14T18:32:18.728Z,0
2016-12-14T18:33:33.628Z,0
2016-12-14T18:34:49.067Z,0
2016-12-14T18:36:04.898Z,0
2016-12-14T18:37:20.571Z,0
2016-12-14T18:38:35.931Z,0
2016-12-14T18:39:51.181Z,0
2016-12-14T18:41:06.081Z,0
2016-12-14T18:42:21.065Z,0
2016-12-14T18:43:35.929Z,0
2016-12-14T18:44:51.241Z,0
2016-12-14T18:46:06.868Z,0
2016-12-14T18:47:22.980Z,0
2016-12-14T18:48:38.093Z,0
2016-12-14T18:49:53.048Z,0
2016-12-14T18:51:07.722Z,0
2016-12-14T18:52:22.554Z,0
2016-12-14T18:53:40.163Z,0
2016-12-14T18:54:54.870Z,0
2016-12-14T18:56:10.070Z,0
2016-12-14T18:57:24.609Z,0
2016-12-14T18:58:39.471Z,0
2016-12-14T18:59:55.350Z,0
2016-12-14T19:01:10.768Z,0
2016-12-14T19:02:25.463Z,0
2016-12-14T19:03:40.553Z,0
2016-12-14T19:04:56.738Z,0
2016-12-14T19:06:12.503Z,0
2016-12-14T19:07:27.861Z,0
2016-12-14T19:08:42.477Z,0
2016-12-14T19:09:58.091Z,0
2016-12-14T19:11:13.543Z,0
2016-12-14T19:12:29.182Z,0
2016-12-14T19:13:44.942Z,0
2016-12-14T19:15:03.270Z,0
2016-12-14T19:16:18.052Z,0
2016-12-14T19:17:33.186Z,0
2016-12-14T19:18:48.546Z,0
2016-12-14T19:20:03.731Z,0
2016-12-14T19:21:20.707Z,0
2016-12-14T19:22:40.229Z,0
2016-12-14T19:23:57.278Z,0
2016-12-14T19:25:26.730Z,0
2016-12-14T19:26:41.483Z,0
2016-12-14T19:27:56.968Z,0
2016-12-14T19:29:12.330Z,0
2016-12-14T19:30:27.514Z,0
2016-12-14T19:31:44.273Z,0
2016-12-14T19:32:59.275Z,0
2016-12-14T19:34:16.179Z,0
2016-12-14T19:35:32.205Z,0
2016-12-14T19:36:47.311Z,0
2016-12-14T19:38:03.562Z,0
2016-12-14T19:39:20.062Z,0
2016-12-14T19:40:35.083Z,0
2016-12-14T19:41:51.721Z,0
2016-12-14T19:43:06.667Z,0
2016-12-14T19:44:22.258Z,0
2016-12-14T19:45:38.264Z,0
2016-12-14T19:47:18.943Z,0
2016-12-14T19:48:35.502Z,0
2016-12-14T19:49:51.278Z,0
2016-12-14T19:51:25.819Z,0
2016-12-14T19:52:42.494Z,0
2016-12-14T19:54:16.612Z,0
2016-12-14T19:55:33.006Z,0
2016-12-14T19:56:48.633Z,0
2016-12-14T19:58:04.467Z,0
2016-12-14T19:59:20.562Z,0
2016-12-14T20:00:37.694Z,0
2016-12-14T20:01:56.016Z,0
2016-12-14T20:05:12.721Z,0
2016-12-14T20:06:28.591Z,0
2016-12-14T20:07:44.627Z,0
2016-12-14T20:09:01.060Z,0
2016-12-14T20:10:17.331Z,0
2016-12-14T20:11:32.673Z,0
2016-12-14T20:12:48.406Z,0
2016-12-14T20:15:38.186Z,0
2016-12-14T20:16:53.696Z,0
2016-12-14T20:18:09.436Z,0
2016-12-14T20:19:24.224Z,0
2016-12-14T20:24:44.417Z,0
2016-12-14T20:26:38.464Z,0
2016-12-14T20:28:12.129Z,0
2016-12-14T20:29:47.032Z,0
2016-12-14T20:31:22.177Z,0
2016-12-14T20:32:55.776Z,0
2016-12-14T20:34:29.385Z,0
2016-12-14T20:36:03.211Z,0
2016-12-14T20:37:38.084Z,0
2016-12-14T20:39:34.067Z,0
2016-12-14T20:41:08.708Z,0
2016-12-14T20:42:43.811Z,0
2016-12-14T20:44:18.406Z,0
2016-12-14T20:45:54.726Z,0
2016-12-14T20:47:49.543Z,0
2016-12-14T20:49:24.139Z,0
2016-12-14T20:50:58.213Z,0
2016-12-14T20:52:37.376Z,0
2016-12-14T20:54:28.450Z,0
2016-12-14T20:55:44.659Z,0
2016-12-14T20:57:38.625Z,0
2016-12-14T20:59:12.878Z,0
2016-12-14T21:00:47.253Z,0
2016-12-14T21:02:21.023Z,0
2016-12-14T21:03:54.760Z,0
2016-12-14T21:05:28.932Z,0
2016-12-14T21:07:03.137Z,0
2016-12-14T21:08:37.537Z,0
2016-12-14T21:10:11.596Z,0
2016-12-14T21:12:05.332Z,0
2016-12-14T21:13:39.901Z,0
2016-12-14T21:15:16.820Z,0
2016-12-14T21:16:51.152Z,0
2016-12-14T21:18:25.519Z,0
2016-12-14T21:19:59.711Z,0
2016-12-14T21:21:53.749Z,0
2016-12-14T21:23:27.931Z,0
2016-12-14T21:25:03.233Z,0
2016-12-14T21:26:37.252Z,0
2016-12-14T21:28:12.221Z,0
2016-12-14T21:29:45.839Z,0
2016-12-14T21:31:20.216Z,0
2016-12-14T21:32:55.380Z,0
2016-12-14T21:34:49.161Z,0
2016-12-14T21:36:23.309Z,0
2016-12-14T21:37:57.249Z,0
2016-12-14T21:39:26.360Z,0
2016-12-14T21:41:00.538Z,0
2016-12-14T21:42:34.577Z,0
2016-12-14T21:44:09.412Z,0
2016-12-14T21:45:43.072Z,0
2016-12-14T21:47:17.436Z,0
2016-12-14T21:48:46.434Z,0
2016-12-14T21:50:20.286Z,0
2016-12-14T21:51:53.922Z,0
2016-12-14T21:53:22.962Z,0
2016-12-14T21:55:00.226Z,0
2016-12-14T21:56:34.059Z,0
2016-12-14T21:58:07.901Z,0
2016-12-14T21:59:41.791Z,0
2016-12-14T22:01:16.353Z,0
2016-12-14T22:02:50.699Z,0
2016-12-14T22:04:25.183Z,0
2016-12-14T22:05:58.851Z,0
2016-12-14T22:07:28.807Z,0
2016-12-14T22:09:02.837Z,0
2016-12-14T22:10:36.934Z,0
2016-12-14T22:12:10.300Z,0
2016-12-14T22:13:43.713Z,0
2016-12-14T22:16:46.818Z,0
2016-12-14T22:18:20.200Z,0
2016-12-14T22:19:53.597Z,0
2016-12-14T22:21:27.837Z,0
2016-12-14T22:23:01.484Z,0
2016-12-14T22:24:54.332Z,0
2016-12-14T22:26:28.231Z,0
2016-12-14T22:28:02.335Z,0
2016-12-14T22:29:36.125Z,0
2016-12-14T22:31:09.753Z,0
2016-12-14T22:32:43.493Z,0
2016-12-14T22:34:17.558Z,0
2016-12-14T22:35:51.106Z,0
2016-12-14T22:37:24.655Z,0
2016-12-14T22:38:58.234Z,0
2016-12-14T22:40:32.184Z,0
2016-12-14T22:42:05.950Z,0
2016-12-14T22:43:39.633Z,0
2016-12-14T22:45:13.701Z,0
2016-12-14T22:47:07.043Z,0
2016-12-14T22:48:40.742Z,0
2016-12-14T22:50:14.879Z,0
2016-12-14T22:51:49.080Z,0
2016-12-14T22:53:22.954Z,0
2016-12-14T22:54:57.586Z,0
2016-12-14T22:56:33.185Z,0
2016-12-14T22:58:06.604Z,0
2016-12-14T22:59:40.685Z,0
2016-12-14T23:01:14.495Z,0
2016-12-14T23:03:07.138Z,0
2016-12-14T23:04:40.415Z,0
2016-12-14T23:06:14.044Z,0
2016-12-14T23:07:48.465Z,0
2016-12-14T23:09:21.979Z,0
2016-12-14T23:10:55.494Z,0
2016-12-14T23:12:30.373Z,0
2016-12-14T23:14:04.069Z,0
2016-12-14T23:15:37.533Z,0
2016-12-14T23:17:14.047Z,0
2016-12-14T23:19:07.810Z,0
2016-12-14T23:20:22.562Z,0
2016-12-14T23:21:56.300Z,0
2016-12-14T23:23:49.576Z,0
2016-12-14T23:25:25.376Z,0
2016-12-14T23:26:59.460Z,0
2016-12-14T23:28:33.970Z,0
2016-12-14T23:30:07.930Z,0
2016-12-14T23:31:43.312Z,0
2016-12-14T23:33:38.654Z,0
2016-12-14T23:35:12.388Z,0
2016-12-14T23:36:47.059Z,0
2016-12-14T23:38:21.235Z,0
2016-12-14T23:39:55.166Z,0
2016-12-14T23:41:24.647Z,0
2016-12-14T23:42:58.403Z,0
2016-12-14T23:44:33.377Z,0
2016-12-14T23:46:07.189Z,0
2016-12-14T23:47:41.353Z,0
2016-12-14T23:49:17.368Z,0
2016-12-14T23:50:51.471Z,0
2016-12-14T23:52:44.671Z,0
2016-12-14T23:54:18.911Z,0
2016-12-14T23:55:53.111Z,0
2016-12-14T23:57:26.672Z,0
2016-12-14T23:59:00.226Z,0
